Time;durP1;ratioP1;P1;durP2;ratioP2;P2;SDS_P1;SDS_P2;PMS_P1;PMS_P2;Temp;Humidity;BMP_temperature;BMP_pressure;BME280_temperature;BME280_humidity;BME280_pressure;Samples;Min_cycle;Max_cycle;Signal;HPM_P1;HPM_P2
2022/09/28 00:01:16;;;;;;;2.93;2.73;;;10.70;82.80;;;13.33;61.88;99487.50;4897515;29;20228;-57
2022/09/28 00:03:46;;;;;;;3.50;3.20;;;10.80;82.90;;;13.36;61.87;99496.81;4898608;29;20263;-56
2022/09/28 00:06:17;;;;;;;3.80;3.00;;;10.70;82.80;;;13.35;61.99;99495.19;4898111;29;20702;-59
2022/09/28 00:08:45;;;;;;;4.13;3.73;;;10.70;82.80;;;13.33;61.83;99489.34;4898457;29;20203;-59
2022/09/28 00:11:17;;;;;;;3.70;3.40;;;10.80;82.80;;;13.33;61.69;99490.16;4897482;29;20563;-59
2022/09/28 00:13:49;;;;;;;3.27;2.97;;;10.70;82.60;;;13.29;62.03;99488.94;4898066;29;20226;-59
2022/09/28 00:16:23;;;;;;;6.27;4.27;;;10.70;82.60;;;13.29;61.78;99488.94;4898334;29;20258;-58
2022/09/28 00:18:51;;;;;;;4.00;3.60;;;10.70;82.70;;;13.28;62.03;99491.84;4898436;29;20190;-58
2022/09/28 00:21:21;;;;;;;4.80;3.87;;;10.70;82.70;;;13.26;62.17;99489.41;4896890;29;20219;-58
2022/09/28 00:26:44;;;;;;;3.67;3.30;;;10.70;82.80;;;13.17;62.29;99480.16;4897985;29;20200;-58
2022/09/28 00:29:31;;;;;;;6.43;3.70;;;10.70;82.80;;;13.11;62.50;99483.72;4899597;29;20235;-56
2022/09/28 00:32:01;;;;;;;3.87;3.47;;;10.70;83.00;;;13.12;62.76;99485.31;4905997;29;20218;-59
2022/09/28 00:34:32;;;;;;;4.47;3.43;;;10.60;82.90;;;13.09;62.58;99488.41;4919782;29;20627;-58
2022/09/28 00:37:01;;;;;;;4.50;4.10;;;10.60;83.10;;;13.07;62.67;99479.09;4909611;29;20239;-57
2022/09/28 00:39:31;;;;;;;5.97;3.70;;;10.60;83.10;;;13.05;62.65;99479.25;4901061;29;20195;-55
2022/09/28 00:42:01;;;;;;;3.77;3.40;;;10.60;83.20;;;13.06;62.61;99470.34;4900558;29;20223;-58
2022/09/28 00:44:38;;;;;;;4.17;3.77;;;10.60;83.30;;;13.07;62.43;99471.97;4900708;29;20207;-58
2022/09/28 00:47:41;;;;;;;6.27;4.40;;;10.60;83.40;;;13.09;62.38;99474.38;4901231;29;20544;-58
2022/09/28 00:50:19;;;;;;;5.40;3.80;;;10.50;83.30;;;13.13;62.29;99465.78;4901301;29;20702;-59
2022/09/28 00:52:53;;;;;;;4.23;3.70;;;10.60;83.50;;;13.17;62.16;99466.16;4900982;29;20226;-58
2022/09/28 00:55:33;;;;;;;5.20;4.07;;;10.50;83.30;;;13.17;62.20;99461.66;4901062;29;20235;-58
2022/09/28 00:58:06;;;;;;;5.37;3.57;;;10.60;83.40;;;13.19;62.19;99464.09;4900885;29;20188;-57
2022/09/28 01:00:34;;;;;;;4.20;3.67;;;10.60;83.30;;;13.21;62.25;99460.22;4900706;29;20183;-56
2022/09/28 01:03:02;;;;;;;4.53;4.13;;;10.60;83.20;;;13.23;61.98;99465.25;4900289;29;20261;-58
2022/09/28 01:05:32;;;;;;;3.60;3.30;;;10.60;83.30;;;13.25;62.10;99461.38;4900689;29;20212;-57
2022/09/28 01:08:02;;;;;;;4.97;3.63;;;10.60;83.30;;;13.30;62.10;99452.78;4900856;29;20211;-58
2022/09/28 01:10:30;;;;;;;3.13;2.93;;;10.60;83.40;;;13.38;62.12;99455.13;4900416;29;20184;-57
2022/09/28 01:12:58;;;;;;;4.13;3.73;;;10.70;83.60;;;13.42;61.90;99453.63;4899788;29;20226;-58
2022/09/28 01:15:29;;;;;;;4.43;3.40;;;10.70;83.40;;;13.47;61.49;99451.94;4900723;29;20568;-58
2022/09/28 01:18:12;;;;;;;4.23;3.37;;;10.70;83.20;;;13.49;61.55;99441.94;4900691;29;20204;-56
2022/09/28 01:20:55;;;;;;;5.53;3.50;;;10.80;83.20;;;13.52;61.48;99444.13;4900280;29;20206;-59
2022/09/28 01:24:17;;;;;;;3.30;3.07;;;10.80;83.10;;;13.57;61.89;99441.59;4898680;29;20223;-59
2022/09/28 01:27:12;;;;;;;3.33;2.90;;;10.80;83.80;;;13.69;61.72;99438.19;4881489;29;20244;-56
2022/09/28 01:29:51;;;;;;;4.63;3.37;;;10.90;83.40;;;13.79;61.33;99433.13;4917647;29;20206;-55
2022/09/28 01:32:35;;;;;;;5.10;3.20;;;11.00;83.30;;;13.87;61.36;99443.41;4908960;29;20564;-59
2022/09/28 01:35:09;;;;;;;4.27;3.20;;;11.10;83.50;;;13.99;61.49;99438.94;4899904;29;20609;-57
2022/09/28 01:37:46;;;;;;;4.57;3.73;;;11.10;83.30;;;14.07;60.56;99425.38;4899950;29;20201;-59
2022/09/28 01:40:15;;;;;;;4.17;3.20;;;11.30;82.60;;;14.09;60.33;99429.41;4900038;29;20187;-57
2022/09/28 01:42:50;;;;;;;5.37;4.27;;;11.30;82.20;;;14.12;59.99;99428.94;4899199;29;20223;-56
2022/09/28 01:45:27;;;;;;;5.70;3.80;;;11.40;81.60;;;14.09;59.98;99429.41;4899690;29;20246;-58
2022/09/28 01:48:01;;;;;;;4.50;4.10;;;11.40;81.10;;;14.05;59.80;99432.72;4899906;29;20183;-58
2022/09/28 01:50:36;;;;;;;4.57;3.23;;;11.40;81.00;;;14.06;59.94;99434.34;4899528;29;20183;-59
2022/09/28 01:53:14;;;;;;;4.87;3.40;;;11.30;81.10;;;14.08;60.13;99424.31;4899838;29;20222;-56
2022/09/28 01:55:46;;;;;;;4.07;3.17;;;11.30;81.30;;;14.17;60.59;99428.22;4899716;29;20238;-57
2022/09/28 01:58:26;;;;;;;4.33;3.90;;;11.30;82.00;;;14.27;60.04;99424.00;4899854;29;20525;-57
2022/09/28 02:01:05;;;;;;;4.73;4.27;;;11.40;82.00;;;14.32;59.63;99418.03;4899164;29;20192;-57
2022/09/28 02:03:41;;;;;;;5.07;3.63;;;11.50;81.40;;;14.31;59.50;99416.41;4899089;29;20246;-58
2022/09/28 02:06:17;;;;;;;7.67;4.80;;;11.50;80.90;;;14.29;59.40;99413.16;4899318;29;20234;-59
2022/09/28 02:08:50;;;;;;;4.90;4.50;;;11.50;80.60;;;14.25;59.05;99412.03;4899489;29;20219;-56
2022/09/28 02:11:20;;;;;;;4.63;4.30;;;11.50;80.20;;;14.19;59.12;99411.09;4899387;29;20195;-58
2022/09/28 02:13:55;;;;;;;4.43;4.03;;;11.50;80.20;;;14.14;59.22;99410.97;4880927;29;20745;-56
2022/09/28 02:16:35;;;;;;;5.10;4.60;;;11.50;80.40;;;14.11;59.29;99408.00;4880562;29;20192;-55
2022/09/28 02:19:05;;;;;;;5.97;4.03;;;11.40;80.30;;;14.14;60.16;99405.69;4880605;29;20612;-56
2022/09/28 02:21:41;;;;;;;5.83;4.43;;;11.40;81.50;;;14.20;60.07;99403.97;4881714;29;20227;-56
2022/09/28 02:24:21;;;;;;;4.63;4.23;;;11.40;81.40;;;14.26;59.73;99408.34;4903879;29;20549;-55
2022/09/28 02:26:52;;;;;;;5.27;4.83;;;11.50;81.30;;;14.27;59.60;99402.81;4918184;29;20533;-55
2022/09/28 02:29:21;;;;;;;5.00;4.10;;;11.50;80.80;;;14.31;59.78;99411.13;4920181;29;20266;-57
2022/09/28 02:31:50;;;;;;;6.70;4.93;;;11.50;81.40;;;14.40;60.00;99404.47;4914737;29;20203;-56
2022/09/28 02:34:17;;;;;;;3.90;3.60;;;11.60;81.50;;;14.52;59.78;99401.78;4901073;29;20218;-54
2022/09/28 02:36:46;;;;;;;6.63;4.70;;;11.60;81.50;;;14.59;59.44;99407.75;4902777;29;20625;-54
2022/09/28 02:39:16;;;;;;;5.53;5.03;;;11.70;81.20;;;14.64;59.05;99410.53;4902371;29;20669;-55
2022/09/28 02:41:56;;;;;;;4.93;4.53;;;11.80;80.40;;;14.59;58.69;99403.28;4901626;29;20195;-56
2022/09/28 02:44:48;;;;;;;3.93;3.63;;;11.80;80.10;;;14.60;58.77;99409.34;4901296;29;20179;-56
2022/09/28 02:47:33;;;;;;;6.80;5.73;;;11.80;80.30;;;14.59;58.37;99405.94;4900548;29;20192;-54
2022/09/28 02:50:14;;;;;;;6.00;5.50;;;11.80;79.50;;;14.51;58.53;99411.56;4899362;29;20219;-59
2022/09/28 02:53:18;;;;;;;7.63;5.10;;;11.80;79.20;;;14.35;58.58;99411.47;4898135;29;20597;-58
2022/09/28 02:56:06;;;;;;;7.00;6.30;;;11.70;79.00;;;14.20;58.94;99406.59;4897879;29;20282;-57
2022/09/28 02:58:49;;;;;;;6.63;6.03;;;11.60;79.10;;;14.07;59.27;99409.50;4895761;29;20222;-56
2022/09/28 03:01:28;;;;;;;5.00;4.57;;;11.60;79.40;;;14.05;59.55;99408.91;4898056;29;20601;-59
2022/09/28 03:04:09;;;;;;;5.53;4.83;;;11.50;79.80;;;14.05;59.57;99415.00;4880680;29;20219;-58
2022/09/28 03:06:45;;;;;;;5.10;4.60;;;11.50;80.40;;;14.16;60.41;99413.41;4879746;29;20207;-58
2022/09/28 03:09:21;;;;;;;6.30;5.30;;;11.40;81.40;;;14.30;60.23;99413.97;4879584;29;20212;-58
2022/09/28 03:11:54;;;;;;;7.40;6.37;;;11.50;81.70;;;14.43;59.81;99411.91;4881601;29;20187;-57
2022/09/28 03:14:22;;;;;;;5.70;5.10;;;11.60;81.40;;;14.50;59.67;99409.16;4898637;29;20200;-57
2022/09/28 03:16:51;;;;;;;6.93;5.43;;;11.70;81.20;;;14.56;59.39;99414.31;4898322;29;20188;-59
2022/09/28 03:19:25;;;;;;;8.07;5.80;;;11.70;80.70;;;14.57;59.04;99410.63;4897597;29;20203;-57
2022/09/28 03:21:54;;;;;;;5.73;5.23;;;11.80;80.40;;;14.61;59.17;99406.50;4909515;29;20300;-57
2022/09/28 03:24:21;;;;;;;6.03;5.53;;;11.80;80.60;;;14.66;58.57;99414.53;4898304;29;20203;-54
2022/09/28 03:26:48;;;;;;;6.53;5.10;;;11.80;80.00;;;14.61;58.60;99406.50;4899400;29;20199;-58
2022/09/28 03:29:16;;;;;;;5.80;5.17;;;11.80;79.70;;;14.64;58.92;99406.00;4898783;29;20247;-57
2022/09/28 03:31:43;;;;;;;5.87;5.27;;;11.80;80.00;;;14.67;58.65;99405.53;4897095;29;20585;-58
2022/09/28 03:34:12;;;;;;;6.13;4.77;;;11.80;80.00;;;14.74;59.25;99400.91;4899253;29;20258;-58
2022/09/28 03:36:40;;;;;;;6.27;5.67;;;11.90;80.60;;;14.78;58.50;99409.22;4900497;29;20199;-58
2022/09/28 03:39:07;;;;;;;5.70;5.20;;;12.00;80.00;;;14.84;58.54;99411.72;4901062;29;20194;-58
2022/09/28 03:41:34;;;;;;;6.77;5.77;;;12.00;80.00;;;14.87;58.61;99402.50;4898996;29;20338;-58
2022/09/28 03:44:02;;;;;;;7.27;5.93;;;12.00;80.10;;;14.93;58.70;99406.84;4898165;29;20199;-58
2022/09/28 03:46:29;;;;;;;5.93;5.20;;;12.10;80.20;;;15.01;58.60;99411.78;4899431;29;20606;-58
2022/09/28 03:48:58;;;;;;;6.43;5.57;;;12.10;80.20;;;15.08;58.19;99407.16;4898389;29;20621;-57
2022/09/28 03:51:26;;;;;;;6.30;5.53;;;12.20;80.10;;;15.14;58.47;99405.41;4898162;29;20199;-58
2022/09/28 03:53:54;;;;;;;9.70;5.70;;;12.30;79.50;;;15.17;57.93;99410.22;4897359;29;20230;-57
2022/09/28 03:56:21;;;;;;;6.73;5.90;;;12.30;79.30;;;15.17;57.69;99404.91;4897411;29;20199;-58
2022/09/28 03:58:48;;;;;;;6.70;5.87;;;12.30;78.80;;;15.14;57.27;99405.41;4897883;29;20200;-59
2022/09/28 04:01:16;;;;;;;6.33;5.60;;;12.30;78.40;;;15.11;57.51;99408.53;4897232;29;20267;-59
2022/09/28 04:03:45;;;;;;;6.43;5.37;;;12.30;78.40;;;15.06;57.41;99403.94;4898983;29;20219;-58
2022/09/28 04:06:13;;;;;;;6.07;5.13;;;12.30;78.30;;;15.03;57.64;99404.41;4900559;29;20202;-59
2022/09/28 04:08:42;;;;;;;6.57;6.03;;;12.20;78.50;;;15.01;57.44;99400.38;4901038;29;20195;-59
2022/09/28 04:11:09;;;;;;;5.57;5.07;;;12.20;78.60;;;14.98;57.77;99406.13;4901037;29;20799;-59
2022/09/28 04:13:37;;;;;;;8.70;6.50;;;12.20;78.90;;;15.00;57.85;99401.44;4886680;29;20215;-59
2022/09/28 04:16:05;;;;;;;6.80;6.07;;;12.20;79.40;;;14.98;57.62;99408.78;4882697;29;20199;-59
2022/09/28 04:18:33;;;;;;;6.57;5.97;;;12.20;78.80;;;14.89;57.25;99398.59;4881832;29;20204;-58
2022/09/28 04:21:05;;;;;;;6.03;5.43;;;12.20;78.20;;;14.85;57.79;99400.09;4882568;29;20629;-59
2022/09/28 04:23:34;;;;;;;6.10;5.50;;;12.10;78.60;;;14.86;58.24;99399.03;4895835;29;20218;-56
2022/09/28 04:26:04;;;;;;;5.70;5.20;;;12.10;79.10;;;14.86;57.81;99409.66;4901761;29;20247;-58
2022/09/28 04:31:21;;;;;;;5.73;4.80;;;12.10;78.50;;;14.76;58.13;99400.72;4899962;29;20175;-56
2022/09/28 04:33:49;;;;;;;5.50;4.63;;;12.00;78.40;;;14.74;57.49;99403.56;4900899;29;20648;-56
2022/09/28 04:36:18;;;;;;;5.53;4.57;;;12.00;78.00;;;14.65;57.24;99402.34;4900958;29;20210;-57
2022/09/28 04:38:45;;;;;;;4.80;4.40;;;11.90;77.70;;;14.58;57.49;99406.94;4901618;29;20206;-58
2022/09/28 04:41:21;;;;;;;4.93;4.43;;;11.80;77.80;;;14.55;57.72;99404.75;4881910;29;20200;-58
2022/09/28 04:43:49;;;;;;;4.97;4.27;;;11.80;78.40;;;14.57;57.92;99407.97;4899318;29;20219;-56
2022/09/28 04:46:17;;;;;;;5.50;4.10;;;11.70;78.60;;;14.59;58.06;99405.94;4899519;29;20258;-58
2022/09/28 04:48:45;;;;;;;6.63;4.70;;;11.70;78.70;;;14.56;57.83;99401.09;4900960;29;20191;-58
2022/09/28 04:51:12;;;;;;;6.53;4.43;;;11.70;78.40;;;14.55;57.53;99401.31;4900304;29;20218;-58
2022/09/28 04:53:40;;;;;;;4.93;4.30;;;11.70;78.50;;;14.54;57.70;99405.81;4902041;29;20222;-55
2022/09/28 04:56:10;;;;;;;4.53;4.00;;;11.60;78.70;;;14.53;57.65;99404.19;4900884;29;20195;-58
2022/09/28 04:58:40;;;;;;;4.43;4.03;;;11.60;78.90;;;14.53;58.20;99398.91;4900683;29;20219;-59
2022/09/28 05:01:11;;;;;;;5.20;4.33;;;11.60;79.70;;;14.55;57.78;99402.13;4900162;29;20270;-56
2022/09/28 05:03:38;;;;;;;4.80;4.40;;;11.60;79.50;;;14.54;57.77;99400.53;4900070;29;20219;-58
2022/09/28 05:06:06;;;;;;;5.00;4.50;;;11.60;79.20;;;14.51;58.03;99405.47;4900026;29;20203;-56
2022/09/28 05:08:34;;;;;;;4.73;4.30;;;11.60;79.20;;;14.46;58.13;99406.16;4900309;29;20542;-56
2022/09/28 05:11:06;;;;;;;3.63;3.30;;;11.60;79.70;;;14.45;58.03;99396.63;4899532;29;20688;-56
2022/09/28 05:13:44;;;;;;;3.47;3.17;;;11.60;79.30;;;14.43;57.87;99398.69;4908460;29;20226;-58
2022/09/28 05:16:14;;;;;;;4.43;3.40;;;11.60;78.80;;;14.43;58.02;99401.31;4916740;29;20195;-57
2022/09/28 05:18:42;;;;;;;3.07;2.57;;;11.60;78.90;;;14.42;57.78;99402.38;4918883;29;20265;-58
2022/09/28 05:21:11;;;;;;;2.87;2.60;;;11.60;78.60;;;14.38;57.71;99401.22;4917407;29;20182;-57
2022/09/28 05:23:39;;;;;;;3.10;2.27;;;11.50;78.40;;;14.33;57.54;99403.78;4900297;29;20665;-59
2022/09/28 05:26:07;;;;;;;3.13;1.77;;;11.50;78.30;;;14.29;57.75;99405.22;4898938;29;20203;-57
2022/09/28 05:28:37;;;;;;;2.83;2.20;;;11.40;78.40;;;14.31;58.13;99405.81;4900393;29;20199;-58
2022/09/28 05:31:06;;;;;;;2.20;2.00;;;11.40;78.90;;;14.35;57.97;99404.34;4899454;29;20235;-58
2022/09/28 05:33:33;;;;;;;2.20;2.00;;;11.40;79.20;;;14.40;58.42;99404.47;4898923;29;20223;-58
2022/09/28 05:36:01;;;;;;;3.00;2.70;;;11.50;80.20;;;14.48;58.79;99401.44;4900005;29;20252;-58
2022/09/28 05:38:29;;;;;;;4.50;2.90;;;11.50;80.30;;;14.58;58.42;99406.13;4900041;29;20694;-59
2022/09/28 05:40:56;;;;;;;2.70;2.50;;;11.60;80.20;;;14.60;57.62;99404.88;4900915;29;20231;-58
2022/09/28 05:43:24;;;;;;;2.40;2.20;;;11.70;79.20;;;14.55;57.43;99401.31;4899137;29;20286;-57
2022/09/28 05:45:51;;;;;;;4.63;2.57;;;11.70;78.10;;;14.49;57.51;99395.13;4900247;29;20195;-57
2022/09/28 05:48:23;;;;;;;4.17;2.63;;;11.70;78.00;;;14.44;57.79;99400.28;4899371;29;20222;-56
2022/09/28 05:50:51;;;;;;;3.17;2.77;;;11.70;78.20;;;14.37;57.80;99398.81;4899356;29;20211;-60
2022/09/28 05:53:19;;;;;;;3.27;2.97;;;11.60;77.70;;;14.31;57.96;99392.59;4882905;29;20236;-57
2022/09/28 05:55:47;;;;;;;3.07;2.77;;;11.60;78.20;;;14.31;58.11;99399.75;4893048;29;20211;-59
2022/09/28 05:58:15;;;;;;;4.33;2.80;;;11.60;78.50;;;14.28;57.73;99398.34;4898200;29;20195;-58
2022/09/28 06:00:43;;;;;;;3.80;2.87;;;11.50;78.20;;;14.23;58.52;99398.22;4899094;29;20699;-58
2022/09/28 06:03:13;;;;;;;4.30;3.10;;;11.50;79.10;;;14.29;58.72;99399.94;4898339;29;20242;-59
2022/09/28 06:05:41;;;;;;;3.53;2.80;;;11.50;79.50;;;14.34;58.61;99405.38;4900167;29;20195;-59
2022/09/28 06:08:10;;;;;;;4.13;2.40;;;11.50;80.30;;;14.40;58.47;99399.16;4899422;29;20203;-57
2022/09/28 06:10:38;;;;;;;2.70;2.40;;;11.50;79.70;;;14.46;58.39;99398.22;4914664;29;20230;-59
2022/09/28 06:13:06;;;;;;;2.63;2.43;;;11.50;79.50;;;14.48;57.93;99398.78;4903237;29;20731;-59
2022/09/28 06:15:35;;;;;;;3.23;2.80;;;11.50;79.30;;;14.54;58.45;99400.53;4913237;29;20243;-58
2022/09/28 06:18:05;;;;;;;5.97;2.63;;;11.60;80.20;;;14.60;58.38;99404.88;4898904;29;20661;-58
2022/09/28 06:20:35;;;;;;;3.53;3.03;;;11.60;80.50;;;14.68;58.78;99401.88;4898879;29;20274;-59
2022/09/28 06:23:04;;;;;;;3.30;2.60;;;11.70;81.00;;;14.73;58.63;99399.31;4898896;29;20223;-59
2022/09/28 06:25:31;;;;;;;3.53;2.43;;;11.80;79.50;;;14.74;57.99;99400.91;4898789;29;20219;-58
2022/09/28 06:28:01;;;;;;;4.13;3.70;;;11.80;78.90;;;14.74;58.61;99406.22;4913595;29;20217;-59
2022/09/28 06:30:31;;;;;;;3.53;2.60;;;11.80;80.20;;;14.77;58.08;99405.75;4899328;29;20274;-57
2022/09/28 06:33:00;;;;;;;2.40;2.10;;;11.90;79.60;;;14.78;57.81;99402.09;4911921;29;20700;-56
2022/09/28 06:35:30;;;;;;;3.47;2.70;;;11.90;78.90;;;14.81;58.34;99414.84;4898694;29;20284;-59
2022/09/28 06:37:59;;;;;;;4.17;3.63;;;11.90;80.10;;;14.89;57.98;99414.47;4898667;29;20207;-59
2022/09/28 06:40:28;;;;;;;6.73;5.90;;;12.00;79.70;;;14.97;58.14;99415.97;4899251;29;20541;-56
2022/09/28 06:42:57;;;;;;;2.60;2.40;;;12.00;79.60;;;14.98;56.95;99422.03;4898132;29;20275;-57
2022/09/28 06:45:27;;;;;;;3.03;2.80;;;12.10;78.10;;;14.91;56.89;99427.47;4897689;29;20259;-58
2022/09/28 06:47:57;;;;;;;3.40;3.03;;;12.10;77.60;;;14.87;57.26;99427.16;4898413;29;20279;-59
2022/09/28 06:50:26;;;;;;;6.63;3.30;;;12.10;77.80;;;14.87;57.33;99432.47;4912794;29;20222;-58
2022/09/28 06:52:55;;;;;;;4.73;4.33;;;12.10;78.20;;;14.88;57.20;99438.56;4898539;29;20385;-57
2022/09/28 06:55:24;;;;;;;9.47;5.87;;;12.00;78.20;;;14.91;58.02;99438.91;4897988;29;20191;-58
2022/09/28 06:57:59;;;;;;;6.63;4.57;;;12.10;79.60;;;15.01;58.40;99437.47;4898302;29;20274;-55
2022/09/28 07:00:28;;;;;;;4.23;3.57;;;12.10;80.20;;;15.11;58.27;99440.34;4898063;29;20195;-55
2022/09/28 07:02:55;;;;;;;4.37;3.20;;;12.20;80.30;;;15.19;58.28;99440.75;4892735;29;20230;-55
2022/09/28 07:05:26;;;;;;;7.80;5.10;;;12.20;80.30;;;15.30;58.50;99441.75;4901119;29;20209;-56
2022/09/28 07:07:56;;;;;;;4.00;3.07;;;12.30;80.50;;;15.42;58.17;99440.69;4917508;29;20195;-55
2022/09/28 07:10:29;;;;;;;3.00;2.70;;;12.40;79.90;;;15.52;57.98;99448.03;4916869;29;20222;-55
2022/09/28 07:13:03;;;;;;;3.30;2.97;;;12.50;79.80;;;15.59;57.55;99446.03;4912212;29;20219;-56
2022/09/28 07:15:31;;;;;;;2.53;2.33;;;12.60;78.70;;;15.62;56.60;99455.38;4898743;29;20587;-56
2022/09/28 07:18:01;;;;;;;4.20;2.33;;;12.60;78.00;;;15.63;56.77;99457.78;4899119;29;20192;-56
2022/09/28 07:20:34;;;;;;;2.33;2.10;;;12.70;77.10;;;15.59;56.15;99457.44;4899164;29;20210;-56
2022/09/28 07:23:17;;;;;;;1.80;1.70;;;12.60;75.70;;;15.53;55.67;99460.25;4899072;29;20227;-56
2022/09/28 07:25:48;;;;;;;2.43;2.20;;;12.60;75.40;;;15.51;55.70;99463.16;4898580;29;20254;-58
2022/09/28 07:28:17;;;;;;;3.67;2.60;;;12.50;75.80;;;15.51;55.77;99459.69;4913352;29;20208;-56
2022/09/28 07:30:44;;;;;;;3.63;2.60;;;12.50;76.20;;;15.56;56.18;99454.47;4897306;29;20242;-58
2022/09/28 07:33:14;;;;;;;4.03;2.60;;;12.50;77.10;;;15.66;55.97;99464.47;4897067;29;20226;-56
2022/09/28 07:35:49;;;;;;;3.37;2.87;;;12.60;77.20;;;15.74;55.88;99461.41;4898366;29;20202;-58
2022/09/28 07:38:17;;;;;;;4.53;2.90;;;12.70;77.10;;;15.87;55.79;99461.91;4897311;29;20688;-59
2022/09/28 07:43:32;;;;;;;8.53;6.70;;;12.80;76.50;;;16.03;55.30;99477.03;4904308;29;20617;-59
2022/09/28 07:46:00;;;;;;;5.33;3.83;;;12.90;76.90;;;16.13;55.06;99474.56;4901631;29;20195;-59
2022/09/28 07:48:27;;;;;;;3.37;2.20;;;12.90;76.90;;;16.21;54.52;99479.44;4898608;29;20195;-56
2022/09/28 07:50:56;;;;;;;4.67;2.83;;;13.00;76.00;;;16.25;53.99;99477.94;4896765;29;20225;-58
2022/09/28 07:53:24;;;;;;;4.03;2.40;;;13.10;75.50;;;16.20;53.32;99485.81;4898199;29;20215;-59
2022/09/28 07:55:53;;;;;;;2.87;2.47;;;13.10;74.60;;;16.22;53.94;99478.41;4898259;29;20195;-59
2022/09/28 07:58:21;;;;;;;2.80;2.33;;;13.20;75.00;;;16.27;52.72;99486.47;4898061;29;20526;-59
2022/09/28 08:00:50;;;;;;;2.20;2.00;;;13.10;73.00;;;16.28;53.04;99490.69;4897734;29;20187;-58
2022/09/28 08:03:22;;;;;;;2.13;1.90;;;13.20;73.70;;;16.32;53.34;99487.56;4903184;29;20381;-59
2022/09/28 08:05:57;;;;;;;2.73;2.07;;;13.30;74.30;;;16.40;53.31;99495.97;4898190;29;20203;-59
2022/09/28 08:08:26;;;;;;;3.70;3.37;;;13.30;73.90;;;16.57;53.45;99486.13;4910875;29;20266;-57
2022/09/28 08:10:55;;;;;;;5.40;3.00;;;13.40;74.50;;;16.68;51.88;99487.09;4895422;29;20215;-58
2022/09/28 08:13:27;;;;;;;4.00;3.17;;;13.50;72.70;;;16.68;51.19;99487.09;4895439;29;20713;-57
2022/09/28 08:16:01;;;;;;;4.97;4.47;;;13.50;70.70;;;16.54;50.83;99496.44;4896403;29;20693;-56
2022/09/28 08:18:29;;;;;;;5.30;4.80;;;13.50;70.30;;;16.42;51.21;99498.34;4910512;29;20268;-58
2022/09/28 08:23:44;;;;;;;2.67;2.47;;;13.40;70.60;;;16.20;52.08;99499.09;4874199;29;20723;-56
2022/09/28 08:26:11;;;;;;;2.30;2.10;;;13.40;71.10;;;16.11;52.51;99497.06;4897862;29;20243;-56
2022/09/28 08:28:42;;;;;;;2.90;2.60;;;13.30;71.70;;;15.99;52.62;99505.13;4912106;29;20195;-58
2022/09/28 08:31:11;;;;;;;5.63;3.60;;;13.20;71.50;;;15.92;52.90;99504.47;4899021;29;20226;-56
2022/09/28 08:33:40;;;;;;;6.23;3.53;;;13.20;72.10;;;15.89;53.00;99504.94;4898396;29;20231;-58
2022/09/28 08:36:09;;;;;;;3.33;2.67;;;13.10;72.60;;;15.90;53.13;99514.50;4898543;29;20195;-57
2022/09/28 08:38:36;;;;;;;3.40;3.10;;;13.10;72.50;;;15.95;53.45;99511.94;4897934;29;20574;-59
2022/09/28 08:41:17;;;;;;;4.87;3.50;;;13.00;72.70;;;15.99;53.39;99515.72;4898068;29;20247;-59
2022/09/28 08:44:10;;;;;;;6.60;4.87;;;13.00;73.20;;;16.01;53.10;99521.59;4897734;29;20279;-59
2022/09/28 08:46:46;;;;;;;7.57;6.17;;;13.00;73.40;;;16.08;53.01;99530.22;4878535;29;20539;-59
2022/09/28 08:49:24;;;;;;;5.60;4.03;;;13.00;73.40;;;16.03;53.09;99530.13;4879802;29;20199;-59
2022/09/28 08:52:02;;;;;;;4.80;3.60;;;13.10;72.80;;;15.99;53.08;99531.66;4896442;29;20212;-58
2022/09/28 08:54:38;;;;;;;6.10;5.00;;;13.10;73.90;;;15.94;53.07;99528.09;4891304;29;20212;-58
2022/09/28 08:57:14;;;;;;;5.67;5.07;;;13.00;73.00;;;15.90;53.08;99538.38;4880707;29;20211;-59
2022/09/28 08:59:50;;;;;;;4.87;3.90;;;13.00;73.00;;;15.91;53.37;99529.38;4899262;29;20695;-59
2022/09/28 09:02:26;;;;;;;4.80;3.63;;;13.00;73.30;;;15.96;53.35;99542.75;4897021;29;20227;-59
2022/09/28 09:04:57;;;;;;;4.57;3.43;;;13.00;73.60;;;15.94;53.23;99534.22;4902361;29;20270;-60
2022/09/28 09:07:55;;;;;;;3.60;2.60;;;13.00;72.90;;;15.80;53.50;99545.38;4898428;29;20330;-57
2022/09/28 09:10:46;;;;;;;5.50;4.97;;;13.00;73.00;;;15.79;54.01;99549.03;4891630;29;20211;-58
2022/09/28 09:13:44;;;;;;;6.13;5.40;;;13.00;73.20;;;15.90;53.70;99549.00;4898634;29;20224;-59
2022/09/28 09:16:29;;;;;;;6.93;5.13;;;13.00;74.00;;;15.98;53.77;99548.63;4895413;29;20310;-60
2022/09/28 09:19:14;;;;;;;6.33;5.73;;;13.00;73.60;;;15.97;53.52;99555.00;4895638;29;20207;-58
2022/09/28 09:21:50;;;;;;;8.20;5.17;;;13.00;73.10;;;15.99;53.22;99552.91;4896237;29;20206;-58
2022/09/28 09:24:26;;;;;;;7.97;7.13;;;13.10;73.30;;;16.08;53.62;99551.47;4896732;29;20249;-61
2022/09/28 09:27:11;;;;;;;5.50;4.90;;;13.10;73.80;;;16.10;53.01;99557.31;4895977;29;20213;-58
2022/09/28 09:30:03;;;;;;;8.73;5.37;;;13.10;73.10;;;16.09;53.23;99552.25;4879780;29;20222;-60
2022/09/28 09:33:05;;;;;;;6.97;6.13;;;13.10;73.40;;;16.09;53.12;99563.66;4911681;29;20282;-58
2022/09/28 09:36:11;;;;;;;8.67;6.10;;;13.20;73.20;;;16.04;53.17;99566.25;4888146;29;20305;-60
2022/09/28 09:39:01;;;;;;;6.63;5.87;;;13.20;73.20;;;16.01;53.47;99566.72;4898942;29;20200;-57
2022/09/28 09:41:48;;;;;;;7.63;6.60;;;13.20;72.80;;;15.98;53.70;99566.38;4896120;29;20229;-58
2022/09/28 09:44:56;;;;;;;6.17;5.57;;;13.20;73.20;;;15.98;53.92;99564.53;4898321;29;20222;-58
2022/09/28 09:47:32;;;;;;;7.60;6.90;;;13.20;74.30;;;16.10;53.96;99570.59;4898467;29;20209;-59
2022/09/28 09:50:11;;;;;;;7.37;6.07;;;13.20;74.10;;;16.19;53.81;99569.16;4897571;29;20207;-62
2022/09/28 09:52:53;;;;;;;7.93;6.30;;;13.30;74.80;;;16.34;53.75;99570.47;4895021;29;20227;-59
2022/09/28 09:55:28;;;;;;;9.57;6.77;;;13.30;74.00;;;16.49;53.63;99576.03;4897007;29;20729;-57
2022/09/28 09:58:08;;;;;;;10.90;7.57;;;13.40;74.10;;;16.62;52.38;99575.72;4894565;29;20199;-59
2022/09/28 10:00:41;;;;;;;7.57;6.87;;;13.50;73.50;;;16.62;52.31;99581.03;4894686;29;20233;-57
2022/09/28 10:03:21;;;;;;;9.03;6.83;;;13.50;72.50;;;16.66;52.31;99584.84;4894999;29;20231;-58
2022/09/28 10:05:57;;;;;;;10.20;9.20;;;13.60;72.70;;;16.66;52.04;99582.19;4897884;29;20203;-58
2022/09/28 10:08:28;;;;;;;9.30;8.40;;;13.60;72.20;;;16.69;51.98;99584.34;4896147;29;20217;-59
2022/09/28 10:11:09;;;;;;;12.00;9.30;;;13.70;71.90;;;16.77;52.33;99589.25;4896708;29;20218;-58
2022/09/28 10:13:36;;;;;;;28.37;17.83;;;13.70;72.50;;;16.96;52.17;99584.47;4897391;29;20233;-58
2022/09/28 10:16:06;;;;;;;13.10;10.97;;;13.80;72.50;;;17.07;51.13;99586.25;4895198;29;20195;-58
2022/09/28 10:18:35;;;;;;;11.07;9.97;;;13.90;71.30;;;17.37;50.97;99581.31;4894122;29;20209;-59
2022/09/28 10:21:03;;;;;;;12.03;10.73;;;14.00;71.60;;;17.92;50.08;99583.84;4896218;29;20202;-56
2022/09/28 10:23:38;;;;;;;12.83;11.50;;;14.20;71.60;;;18.27;49.23;99584.19;4894691;29;20219;-59
2022/09/28 10:26:14;;;;;;;12.27;11.07;;;14.50;70.60;;;18.55;48.55;99581.25;4897150;29;20262;-60
2022/09/28 10:28:50;;;;;;;13.23;11.93;;;14.80;69.70;;;18.75;47.92;99581.44;4895519;29;20237;-57
2022/09/28 10:31:35;;;;;;;13.73;10.23;;;15.10;68.90;;;18.94;47.74;99577.25;4895124;29;20573;-60
2022/09/28 10:34:06;;;;;;;11.90;10.77;;;15.40;68.70;;;19.08;47.03;99577.63;4894299;29;20234;-60
2022/09/28 10:36:54;;;;;;;12.67;11.47;;;15.60;67.20;;;19.07;46.23;99578.66;4898811;29;20267;-59
2022/09/28 10:39:46;;;;;;;14.60;13.10;;;15.80;65.50;;;19.12;45.48;99588.56;4896737;29;20702;-61
2022/09/28 10:42:21;;;;;;;14.73;12.87;;;15.90;63.80;;;19.17;45.31;99581.41;4894956;29;20678;-60
2022/09/28 10:44:54;;;;;;;17.17;13.77;;;16.00;62.90;;;19.14;44.89;99592.59;4896683;29;20297;-59
2022/09/28 10:47:24;;;;;;;13.53;11.67;;;16.00;62.20;;;19.06;44.86;99584.28;4893772;29;20680;-60
2022/09/28 10:49:54;;;;;;;13.73;12.40;;;16.00;62.20;;;18.96;45.08;99597.53;4896787;29;20705;-60
2022/09/28 10:52:40;;;;;;;11.73;10.60;;;16.00;61.50;;;18.87;45.25;99590.00;4895298;29;20223;-61
2022/09/28 10:55:35;;;;;;;11.03;9.93;;;16.00;62.20;;;18.75;44.84;99594.75;4893940;29;20207;-62